الصفحة الرئيسية
METAR-TAF:

METAR-TAF

مطار :

مطار بغداد الدولي

بغداد, العراق

دائرة عرض: 33-15-45N, خط طول: 44-14-04E, ارتفاع: 35 متر

مراقبة الطقس الحالي

تاريخ ووقت الإصدار 20 دقيقة قبل الساعة 22:00UTC
ريح 3 عقدة من الشمال
درجة الحرارة 32°درجة مئوية
الرطوبة 29%
ضغط 998 hPa
الرؤية 10 كم أو أكثر
الغيوم لا تقل 1500 م ولا وجود لمزنة ركامية السحاب الأسود

METAR: ORBI 242200Z 36003KT CAVOK 32/12 Q0998 NOSIG

زمن: 01:20 (22:20 UTC)

توقعات

تاريخ ووقت الإصدار 5ساعات و 20 دقيقة قبل الساعة 17:00UTC
التوقعات صالحة من24 الساعة 18 UTC إلى 25 الساعة 18 UTC
ريح 4 عقدة من الشمال/الشمال الغربي
الرؤية 10 كم أو أكثر
الغيوم لا تقل 1500 م ولا وجود لمزنة ركامية السحاب الأسود
أصبح
من 25 الساعة 08 UTC إلى 25 الساعة 10 UTC
ريح 12 عقدة من الغرب/الشمال الغربي
الرؤية: 7000 متر
أصبح
من 25 الساعة 16 UTC إلى 25 الساعة 18 UTC
ريح 4 عقدة من الغرب

TAF: ORBI 241700Z 2418/2518 34004KT CAVOK BECMG 2508/2510 30012KT 7000 NSC BECMG 2516/2518 27004KT

أرصاد الطقس والتوقعات من أكثر من 4000 مطار (تقارير الطقس للمطار METAR والتنبؤ بالطقس بالمطارTAF).

المحطات المتاحة هي النقط الصفراء والحمراء على الخريطة.

حرك المؤشر فوق النقطة لمعرفة اسم المحطة.

ثم انقر لمعرفة أرصاد وتوقعات الطقس.

لتغيير الخارطة: اضغط على الأزرار الخضراء مع رمز الصليب الأسود للتكبير. على الزر الأخضر مع شرطة للتصغير، أو على الأسهم الخضراء للخرائط المجاورة.


METAR-TAF: